sensor_id;sensor_type;location;lat;lon;timestamp;P1;durP1;ratioP1;P2;durP2;ratioP2
15132;SDS011;7667;51.232;17.110;2022-10-16T00:01:42;22.00;;;18.27;;
15132;SDS011;7667;51.232;17.110;2022-10-16T00:04:09;22.57;;;17.60;;
15132;SDS011;7667;51.232;17.110;2022-10-16T00:06:37;19.13;;;16.33;;
15132;SDS011;7667;51.232;17.110;2022-10-16T00:09:05;20.33;;;17.10;;
15132;SDS011;7667;51.232;17.110;2022-10-16T00:11:35;20.80;;;17.00;;
15132;SDS011;7667;51.232;17.110;2022-10-16T00:14:10;18.50;;;15.70;;
15132;SDS011;7667;51.232;17.110;2022-10-16T00:16:40;29.90;;;24.47;;
15132;SDS011;7667;51.232;17.110;2022-10-16T00:19:09;30.23;;;24.00;;
15132;SDS011;7667;51.232;17.110;2022-10-16T00:21:39;19.17;;;15.17;;
15132;SDS011;7667;51.232;17.110;2022-10-16T00:24:07;20.73;;;16.57;;
15132;SDS011;7667;51.232;17.110;2022-10-16T00:26:36;19.47;;;16.33;;
15132;SDS011;7667;51.232;17.110;2022-10-16T00:29:05;18.77;;;16.27;;
15132;SDS011;7667;51.232;17.110;2022-10-16T00:31:33;17.30;;;13.00;;
15132;SDS011;7667;51.232;17.110;2022-10-16T00:34:01;15.03;;;12.90;;
15132;SDS011;7667;51.232;17.110;2022-10-16T00:36:28;13.10;;;10.83;;
15132;SDS011;7667;51.232;17.110;2022-10-16T00:38:57;13.23;;;10.17;;
15132;SDS011;7667;51.232;17.110;2022-10-16T00:41:31;12.77;;;8.47;;
15132;SDS011;7667;51.232;17.110;2022-10-16T00:44:02;9.17;;;8.23;;
15132;SDS011;7667;51.232;17.110;2022-10-16T00:46:50;10.03;;;8.63;;
15132;SDS011;7667;51.232;17.110;2022-10-16T00:49:18;13.20;;;10.20;;
15132;SDS011;7667;51.232;17.110;2022-10-16T00:51:48;10.40;;;9.03;;
15132;SDS011;7667;51.232;17.110;2022-10-16T00:56:49;10.87;;;8.57;;
15132;SDS011;7667;51.232;17.110;2022-10-16T01:01:51;8.37;;;6.80;;
15132;SDS011;7667;51.232;17.110;2022-10-16T01:04:19;8.47;;;6.70;;
15132;SDS011;7667;51.232;17.110;2022-10-16T01:06:56;8.23;;;7.00;;
15132;SDS011;7667;51.232;17.110;2022-10-16T01:12:51;7.07;;;5.50;;
15132;SDS011;7667;51.232;17.110;2022-10-16T01:18:34;6.50;;;5.50;;
15132;SDS011;7667;51.232;17.110;2022-10-16T01:21:33;7.97;;;6.43;;
15132;SDS011;7667;51.232;17.110;2022-10-16T01:27:13;10.20;;;6.43;;
15132;SDS011;7667;51.232;17.110;2022-10-16T01:29:54;7.63;;;6.27;;
15132;SDS011;7667;51.232;17.110;2022-10-16T01:32:40;8.27;;;6.50;;
15132;SDS011;7667;51.232;17.110;2022-10-16T01:35:28;7.13;;;6.30;;
15132;SDS011;7667;51.232;17.110;2022-10-16T01:38:03;7.93;;;6.17;;
15132;SDS011;7667;51.232;17.110;2022-10-16T01:40:47;7.07;;;5.47;;
15132;SDS011;7667;51.232;17.110;2022-10-16T01:43:21;7.53;;;5.77;;
15132;SDS011;7667;51.232;17.110;2022-10-16T01:45:53;6.60;;;5.40;;
15132;SDS011;7667;51.232;17.110;2022-10-16T01:48:22;6.67;;;5.33;;
15132;SDS011;7667;51.232;17.110;2022-10-16T01:50:57;6.00;;;5.27;;
15132;SDS011;7667;51.232;17.110;2022-10-16T01:53:30;6.93;;;5.40;;
15132;SDS011;7667;51.232;17.110;2022-10-16T01:55:59;6.87;;;5.13;;
15132;SDS011;7667;51.232;17.110;2022-10-16T01:58:29;6.70;;;4.93;;
15132;SDS011;7667;51.232;17.110;2022-10-16T02:01:01;6.57;;;4.90;;
15132;SDS011;7667;51.232;17.110;2022-10-16T02:03:31;5.23;;;4.57;;
15132;SDS011;7667;51.232;17.110;2022-10-16T02:06:00;4.70;;;4.30;;
15132;SDS011;7667;51.232;17.110;2022-10-16T02:08:28;5.37;;;4.83;;
15132;SDS011;7667;51.232;17.110;2022-10-16T02:10:57;4.40;;;4.00;;
15132;SDS011;7667;51.232;17.110;2022-10-16T02:13:33;5.00;;;4.23;;
15132;SDS011;7667;51.232;17.110;2022-10-16T02:16:09;5.53;;;4.73;;
15132;SDS011;7667;51.232;17.110;2022-10-16T02:18:38;4.33;;;3.93;;
15132;SDS011;7667;51.232;17.110;2022-10-16T02:26:57;4.77;;;4.27;;
15132;SDS011;7667;51.232;17.110;2022-10-16T02:29:53;4.70;;;4.30;;
15132;SDS011;7667;51.232;17.110;2022-10-16T02:32:28;5.87;;;4.40;;
15132;SDS011;7667;51.232;17.110;2022-10-16T02:34:59;5.27;;;4.50;;
15132;SDS011;7667;51.232;17.110;2022-10-16T02:37:28;4.87;;;4.37;;
15132;SDS011;7667;51.232;17.110;2022-10-16T02:39:56;5.17;;;4.50;;
15132;SDS011;7667;51.232;17.110;2022-10-16T02:42:29;4.80;;;4.30;;
15132;SDS011;7667;51.232;17.110;2022-10-16T02:45:01;4.50;;;4.10;;
15132;SDS011;7667;51.232;17.110;2022-10-16T02:47:30;5.30;;;4.40;;
15132;SDS011;7667;51.232;17.110;2022-10-16T02:49:58;5.87;;;4.20;;
15132;SDS011;7667;51.232;17.110;2022-10-16T02:52:25;4.20;;;3.60;;
15132;SDS011;7667;51.232;17.110;2022-10-16T02:54:54;4.63;;;4.03;;
15132;SDS011;7667;51.232;17.110;2022-10-16T02:57:21;4.53;;;4.10;;
15132;SDS011;7667;51.232;17.110;2022-10-16T02:59:49;4.47;;;3.63;;
15132;SDS011;7667;51.232;17.110;2022-10-16T03:02:17;5.00;;;3.93;;
15132;SDS011;7667;51.232;17.110;2022-10-16T03:04:44;6.20;;;4.90;;
15132;SDS011;7667;51.232;17.110;2022-10-16T03:07:12;8.13;;;6.17;;
15132;SDS011;7667;51.232;17.110;2022-10-16T03:09:39;6.80;;;5.30;;
15132;SDS011;7667;51.232;17.110;2022-10-16T03:12:07;7.90;;;5.20;;
15132;SDS011;7667;51.232;17.110;2022-10-16T03:14:34;7.17;;;4.43;;
15132;SDS011;7667;51.232;17.110;2022-10-16T03:17:02;6.73;;;3.90;;
15132;SDS011;7667;51.232;17.110;2022-10-16T03:19:29;5.20;;;3.93;;
15132;SDS011;7667;51.232;17.110;2022-10-16T03:21:57;6.90;;;4.17;;
15132;SDS011;7667;51.232;17.110;2022-10-16T03:24:24;5.23;;;4.40;;
15132;SDS011;7667;51.232;17.110;2022-10-16T03:26:51;4.03;;;3.63;;
15132;SDS011;7667;51.232;17.110;2022-10-16T03:29:19;5.73;;;3.93;;
15132;SDS011;7667;51.232;17.110;2022-10-16T03:31:46;4.47;;;3.57;;
15132;SDS011;7667;51.232;17.110;2022-10-16T03:34:16;4.00;;;3.60;;
15132;SDS011;7667;51.232;17.110;2022-10-16T03:36:43;5.97;;;4.07;;
15132;SDS011;7667;51.232;17.110;2022-10-16T03:39:10;4.60;;;4.10;;
15132;SDS011;7667;51.232;17.110;2022-10-16T03:41:38;5.77;;;3.73;;
15132;SDS011;7667;51.232;17.110;2022-10-16T03:44:05;5.10;;;3.70;;
15132;SDS011;7667;51.232;17.110;2022-10-16T03:46:33;5.40;;;3.60;;
15132;SDS011;7667;51.232;17.110;2022-10-16T03:49:00;7.17;;;3.73;;
15132;SDS011;7667;51.232;17.110;2022-10-16T03:51:32;4.37;;;3.73;;
15132;SDS011;7667;51.232;17.110;2022-10-16T03:54:00;7.93;;;4.00;;
15132;SDS011;7667;51.232;17.110;2022-10-16T03:56:27;5.27;;;3.50;;
15132;SDS011;7667;51.232;17.110;2022-10-16T03:58:55;4.03;;;3.57;;
15132;SDS011;7667;51.232;17.110;2022-10-16T04:01:22;6.90;;;3.83;;
15132;SDS011;7667;51.232;17.110;2022-10-16T04:03:50;3.60;;;3.30;;
15132;SDS011;7667;51.232;17.110;2022-10-16T04:06:17;3.53;;;3.20;;
15132;SDS011;7667;51.232;17.110;2022-10-16T04:08:45;3.80;;;3.27;;
15132;SDS011;7667;51.232;17.110;2022-10-16T04:11:12;5.10;;;4.13;;
15132;SDS011;7667;51.232;17.110;2022-10-16T04:13:40;4.87;;;4.30;;
15132;SDS011;7667;51.232;17.110;2022-10-16T04:16:08;6.73;;;4.30;;
15132;SDS011;7667;51.232;17.110;2022-10-16T04:18:36;4.17;;;3.70;;
15132;SDS011;7667;51.232;17.110;2022-10-16T04:21:04;6.90;;;5.90;;
15132;SDS011;7667;51.232;17.110;2022-10-16T04:23:32;6.60;;;4.70;;
15132;SDS011;7667;51.232;17.110;2022-10-16T04:26:00;4.27;;;3.83;;
15132;SDS011;7667;51.232;17.110;2022-10-16T04:28:28;4.10;;;3.63;;
15132;SDS011;7667;51.232;17.110;2022-10-16T04:30:55;4.97;;;4.43;;
15132;SDS011;7667;51.232;17.110;2022-10-16T04:33:23;5.63;;;3.40;;
15132;SDS011;7667;51.232;17.110;2022-10-16T04:35:57;5.03;;;3.33;;
15132;SDS011;7667;51.232;17.110;2022-10-16T04:38:27;5.10;;;4.00;;
15132;SDS011;7667;51.232;17.110;2022-10-16T04:40:55;6.30;;;3.90;;
15132;SDS011;7667;51.232;17.110;2022-10-16T04:43:22;5.40;;;4.27;;
15132;SDS011;7667;51.232;17.110;2022-10-16T04:45:50;6.00;;;4.70;;
15132;SDS011;7667;51.232;17.110;2022-10-16T04:48:18;6.10;;;5.27;;
15132;SDS011;7667;51.232;17.110;2022-10-16T04:50:46;5.10;;;4.60;;
15132;SDS011;7667;51.232;17.110;2022-10-16T04:53:20;6.57;;;4.03;;
15132;SDS011;7667;51.232;17.110;2022-10-16T04:55:48;4.87;;;3.93;;
15132;SDS011;7667;51.232;17.110;2022-10-16T04:58:17;4.40;;;4.00;;
15132;SDS011;7667;51.232;17.110;2022-10-16T05:00:44;5.03;;;4.33;;
15132;SDS011;7667;51.232;17.110;2022-10-16T05:03:13;4.97;;;4.47;;
15132;SDS011;7667;51.232;17.110;2022-10-16T05:05:44;5.10;;;4.60;;
15132;SDS011;7667;51.232;17.110;2022-10-16T05:08:13;6.97;;;4.97;;
15132;SDS011;7667;51.232;17.110;2022-10-16T05:10:42;5.37;;;4.57;;
15132;SDS011;7667;51.232;17.110;2022-10-16T05:13:10;6.17;;;5.03;;
15132;SDS011;7667;51.232;17.110;2022-10-16T05:15:38;6.17;;;5.57;;
15132;SDS011;7667;51.232;17.110;2022-10-16T05:18:06;5.40;;;4.83;;
15132;SDS011;7667;51.232;17.110;2022-10-16T05:20:33;5.00;;;4.50;;
15132;SDS011;7667;51.232;17.110;2022-10-16T05:23:01;5.53;;;4.60;;
15132;SDS011;7667;51.232;17.110;2022-10-16T05:25:28;6.70;;;4.83;;
15132;SDS011;7667;51.232;17.110;2022-10-16T05:27:56;7.03;;;4.57;;
15132;SDS011;7667;51.232;17.110;2022-10-16T05:30:23;5.43;;;4.77;;
15132;SDS011;7667;51.232;17.110;2022-10-16T05:32:51;5.77;;;4.40;;
15132;SDS011;7667;51.232;17.110;2022-10-16T05:35:18;5.47;;;4.37;;
15132;SDS011;7667;51.232;17.110;2022-10-16T05:37:47;4.70;;;4.20;;
15132;SDS011;7667;51.232;17.110;2022-10-16T05:40:15;5.23;;;4.70;;
15132;SDS011;7667;51.232;17.110;2022-10-16T05:42:43;5.13;;;4.63;;
15132;SDS011;7667;51.232;17.110;2022-10-16T05:45:11;5.80;;;4.90;;
15132;SDS011;7667;51.232;17.110;2022-10-16T05:47:39;5.20;;;4.70;;
15132;SDS011;7667;51.232;17.110;2022-10-16T05:50:06;5.63;;;4.87;;
15132;SDS011;7667;51.232;17.110;2022-10-16T05:52:34;5.80;;;4.40;;
15132;SDS011;7667;51.232;17.110;2022-10-16T05:55:02;8.17;;;5.47;;
15132;SDS011;7667;51.232;17.110;2022-10-16T05:57:30;8.20;;;5.77;;
15132;SDS011;7667;51.232;17.110;2022-10-16T05:59:58;10.13;;;7.30;;
15132;SDS011;7667;51.232;17.110;2022-10-16T06:02:25;23.73;;;15.70;;
15132;SDS011;7667;51.232;17.110;2022-10-16T06:04:53;26.53;;;15.87;;
15132;SDS011;7667;51.232;17.110;2022-10-16T06:07:21;23.27;;;13.43;;
15132;SDS011;7667;51.232;17.110;2022-10-16T06:09:50;22.43;;;13.77;;
15132;SDS011;7667;51.232;17.110;2022-10-16T06:12:19;34.37;;;19.70;;
15132;SDS011;7667;51.232;17.110;2022-10-16T06:14:46;26.70;;;15.27;;
15132;SDS011;7667;51.232;17.110;2022-10-16T06:17:15;29.87;;;18.57;;
15132;SDS011;7667;51.232;17.110;2022-10-16T06:19:42;36.20;;;23.47;;
15132;SDS011;7667;51.232;17.110;2022-10-16T06:22:10;26.33;;;17.67;;
15132;SDS011;7667;51.232;17.110;2022-10-16T06:24:37;20.80;;;14.17;;
15132;SDS011;7667;51.232;17.110;2022-10-16T06:27:05;21.63;;;14.67;;
15132;SDS011;7667;51.232;17.110;2022-10-16T06:29:33;9.93;;;7.10;;
15132;SDS011;7667;51.232;17.110;2022-10-16T06:32:00;11.87;;;8.40;;
15132;SDS011;7667;51.232;17.110;2022-10-16T06:34:28;11.40;;;8.60;;
15132;SDS011;7667;51.232;17.110;2022-10-16T06:36:55;10.17;;;7.73;;
15132;SDS011;7667;51.232;17.110;2022-10-16T06:39:23;10.30;;;6.50;;
15132;SDS011;7667;51.232;17.110;2022-10-16T06:41:50;7.90;;;5.97;;
15132;SDS011;7667;51.232;17.110;2022-10-16T06:44:18;5.57;;;4.70;;
15132;SDS011;7667;51.232;17.110;2022-10-16T06:46:45;6.30;;;5.20;;
15132;SDS011;7667;51.232;17.110;2022-10-16T06:49:13;6.00;;;4.93;;
15132;SDS011;7667;51.232;17.110;2022-10-16T06:51:42;7.53;;;5.67;;
15132;SDS011;7667;51.232;17.110;2022-10-16T06:54:09;5.43;;;4.67;;
15132;SDS011;7667;51.232;17.110;2022-10-16T06:56:37;5.57;;;4.60;;
15132;SDS011;7667;51.232;17.110;2022-10-16T06:59:04;7.60;;;5.57;;
15132;SDS011;7667;51.232;17.110;2022-10-16T07:01:32;9.30;;;5.93;;
15132;SDS011;7667;51.232;17.110;2022-10-16T07:04:00;5.07;;;4.53;;
15132;SDS011;7667;51.232;17.110;2022-10-16T07:06:30;5.70;;;4.27;;
15132;SDS011;7667;51.232;17.110;2022-10-16T07:09:01;6.23;;;4.17;;
15132;SDS011;7667;51.232;17.110;2022-10-16T07:11:30;8.37;;;4.20;;
15132;SDS011;7667;51.232;17.110;2022-10-16T07:13:58;5.43;;;4.10;;
15132;SDS011;7667;51.232;17.110;2022-10-16T07:16:26;5.27;;;4.47;;
15132;SDS011;7667;51.232;17.110;2022-10-16T07:18:57;15.33;;;9.50;;
15132;SDS011;7667;51.232;17.110;2022-10-16T07:21:28;9.00;;;5.87;;
15132;SDS011;7667;51.232;17.110;2022-10-16T07:24:02;6.50;;;4.70;;
15132;SDS011;7667;51.232;17.110;2022-10-16T07:26:34;7.03;;;4.83;;
15132;SDS011;7667;51.232;17.110;2022-10-16T07:29:03;15.20;;;9.00;;
15132;SDS011;7667;51.232;17.110;2022-10-16T07:31:31;11.70;;;6.87;;
15132;SDS011;7667;51.232;17.110;2022-10-16T07:33:59;8.30;;;5.77;;
15132;SDS011;7667;51.232;17.110;2022-10-16T07:36:27;6.80;;;4.97;;
15132;SDS011;7667;51.232;17.110;2022-10-16T07:38:54;5.00;;;4.20;;
15132;SDS011;7667;51.232;17.110;2022-10-16T07:41:26;5.67;;;4.27;;
15132;SDS011;7667;51.232;17.110;2022-10-16T07:43:54;7.00;;;5.73;;
15132;SDS011;7667;51.232;17.110;2022-10-16T07:46:26;6.53;;;5.07;;
15132;SDS011;7667;51.232;17.110;2022-10-16T07:48:55;7.57;;;4.97;;
15132;SDS011;7667;51.232;17.110;2022-10-16T07:51:23;7.33;;;4.40;;
15132;SDS011;7667;51.232;17.110;2022-10-16T07:53:52;5.37;;;4.13;;
15132;SDS011;7667;51.232;17.110;2022-10-16T07:56:20;7.07;;;5.17;;
15132;SDS011;7667;51.232;17.110;2022-10-16T07:58:49;5.63;;;4.63;;
15132;SDS011;7667;51.232;17.110;2022-10-16T08:01:18;6.30;;;4.70;;
15132;SDS011;7667;51.232;17.110;2022-10-16T08:03:47;6.03;;;4.30;;
15132;SDS011;7667;51.232;17.110;2022-10-16T08:06:18;4.83;;;4.20;;
15132;SDS011;7667;51.232;17.110;2022-10-16T08:08:53;7.57;;;4.90;;
15132;SDS011;7667;51.232;17.110;2022-10-16T08:11:22;5.67;;;3.80;;
15132;SDS011;7667;51.232;17.110;2022-10-16T08:13:50;4.50;;;4.07;;
15132;SDS011;7667;51.232;17.110;2022-10-16T08:16:17;4.77;;;3.97;;
15132;SDS011;7667;51.232;17.110;2022-10-16T08:18:45;5.17;;;3.67;;
15132;SDS011;7667;51.232;17.110;2022-10-16T08:21:14;6.77;;;3.97;;
15132;SDS011;7667;51.232;17.110;2022-10-16T08:23:47;4.63;;;3.33;;
15132;SDS011;7667;51.232;17.110;2022-10-16T08:26:22;4.27;;;3.80;;
15132;SDS011;7667;51.232;17.110;2022-10-16T08:28:50;3.30;;;2.83;;
15132;SDS011;7667;51.232;17.110;2022-10-16T08:31:18;4.70;;;2.80;;
15132;SDS011;7667;51.232;17.110;2022-10-16T08:33:47;3.00;;;2.70;;
15132;SDS011;7667;51.232;17.110;2022-10-16T08:36:15;4.23;;;2.60;;
15132;SDS011;7667;51.232;17.110;2022-10-16T08:38:43;4.33;;;2.93;;
15132;SDS011;7667;51.232;17.110;2022-10-16T08:47:10;2.63;;;2.33;;
15132;SDS011;7667;51.232;17.110;2022-10-16T08:49:57;2.90;;;2.60;;
15132;SDS011;7667;51.232;17.110;2022-10-16T08:52:29;2.43;;;2.23;;
15132;SDS011;7667;51.232;17.110;2022-10-16T08:55:02;4.07;;;2.30;;
15132;SDS011;7667;51.232;17.110;2022-10-16T08:57:32;3.73;;;2.50;;
15132;SDS011;7667;51.232;17.110;2022-10-16T09:00:00;2.50;;;2.13;;
15132;SDS011;7667;51.232;17.110;2022-10-16T09:20:40;2.37;;;2.10;;
15132;SDS011;7667;51.232;17.110;2022-10-16T09:23:21;2.80;;;2.50;;
15132;SDS011;7667;51.232;17.110;2022-10-16T09:25:53;2.33;;;2.10;;
15132;SDS011;7667;51.232;17.110;2022-10-16T09:28:22;2.83;;;1.80;;
15132;SDS011;7667;51.232;17.110;2022-10-16T09:30:50;3.93;;;2.23;;
15132;SDS011;7667;51.232;17.110;2022-10-16T09:33:19;2.53;;;2.20;;
15132;SDS011;7667;51.232;17.110;2022-10-16T09:35:51;4.30;;;2.60;;
15132;SDS011;7667;51.232;17.110;2022-10-16T09:38:31;2.60;;;2.30;;
15132;SDS011;7667;51.232;17.110;2022-10-16T09:41:21;2.50;;;2.30;;
15132;SDS011;7667;51.232;17.110;2022-10-16T09:43:56;2.63;;;2.33;;
15132;SDS011;7667;51.232;17.110;2022-10-16T09:46:33;2.50;;;2.30;;
15132;SDS011;7667;51.232;17.110;2022-10-16T09:49:03;2.87;;;2.50;;
15132;SDS011;7667;51.232;17.110;2022-10-16T09:52:05;2.93;;;2.60;;
15132;SDS011;7667;51.232;17.110;2022-10-16T09:54:55;2.77;;;2.57;;
15132;SDS011;7667;51.232;17.110;2022-10-16T09:57:53;2.87;;;2.53;;
15132;SDS011;7667;51.232;17.110;2022-10-16T10:00:22;2.87;;;2.40;;
15132;SDS011;7667;51.232;17.110;2022-10-16T10:02:51;3.43;;;2.30;;
15132;SDS011;7667;51.232;17.110;2022-10-16T10:05:26;3.13;;;2.53;;
15132;SDS011;7667;51.232;17.110;2022-10-16T10:07:59;3.57;;;2.43;;
15132;SDS011;7667;51.232;17.110;2022-10-16T10:10:34;2.50;;;2.30;;
15132;SDS011;7667;51.232;17.110;2022-10-16T10:13:42;2.50;;;2.20;;
15132;SDS011;7667;51.232;17.110;2022-10-16T10:16:02;2.80;;;2.17;;
15132;SDS011;7667;51.232;17.110;2022-10-16T10:18:30;2.10;;;1.90;;
15132;SDS011;7667;51.232;17.110;2022-10-16T10:20:59;2.35;;;1.92;;
15132;SDS011;7667;51.232;17.110;2022-10-16T10:23:29;2.25;;;2.05;;
15132;SDS011;7667;51.232;17.110;2022-10-16T10:37:01;1.75;;;1.65;;
15132;SDS011;7667;51.232;17.110;2022-10-16T10:40:15;2.30;;;2.10;;
15132;SDS011;7667;51.232;17.110;2022-10-16T10:43:22;2.10;;;1.90;;
15132;SDS011;7667;51.232;17.110;2022-10-16T10:46:05;3.85;;;2.05;;
15132;SDS011;7667;51.232;17.110;2022-10-16T10:48:52;2.30;;;2.10;;
15132;SDS011;7667;51.232;17.110;2022-10-16T10:54:45;2.05;;;1.85;;
15132;SDS011;7667;51.232;17.110;2022-10-16T11:00:19;2.78;;;2.00;;
15132;SDS011;7667;51.232;17.110;2022-10-16T11:08:59;2.35;;;1.90;;
15132;SDS011;7667;51.232;17.110;2022-10-16T11:11:41;2.00;;;1.90;;
15132;SDS011;7667;51.232;17.110;2022-10-16T11:14:25;1.67;;;1.58;;
15132;SDS011;7667;51.232;17.110;2022-10-16T11:19:58;1.77;;;1.67;;
15132;SDS011;7667;51.232;17.110;2022-10-16T11:25:24;2.00;;;1.80;;
15132;SDS011;7667;51.232;17.110;2022-10-16T11:27:56;1.70;;;1.60;;
15132;SDS011;7667;51.232;17.110;2022-10-16T11:33:42;1.60;;;1.50;;
15132;SDS011;7667;51.232;17.110;2022-10-16T11:36:17;1.77;;;1.33;;
15132;SDS011;7667;51.232;17.110;2022-10-16T11:38:55;1.50;;;1.40;;
15132;SDS011;7667;51.232;17.110;2022-10-16T11:41:52;2.00;;;1.80;;
15132;SDS011;7667;51.232;17.110;2022-10-16T11:47:42;2.60;;;1.70;;
15132;SDS011;7667;51.232;17.110;2022-10-16T11:55:48;3.13;;;1.70;;
15132;SDS011;7667;51.232;17.110;2022-10-16T12:06:44;2.08;;;1.60;;
15132;SDS011;7667;51.232;17.110;2022-10-16T12:09:27;1.70;;;1.60;;
15132;SDS011;7667;51.232;17.110;2022-10-16T12:12:01;3.65;;;1.88;;
15132;SDS011;7667;51.232;17.110;2022-10-16T12:14:38;1.90;;;1.80;;
15132;SDS011;7667;51.232;17.110;2022-10-16T12:17:27;3.33;;;2.00;;
15132;SDS011;7667;51.232;17.110;2022-10-16T12:20:53;2.30;;;2.10;;
15132;SDS011;7667;51.232;17.110;2022-10-16T12:25:29;3.65;;;2.15;;
15132;SDS011;7667;51.232;17.110;2022-10-16T12:28:04;2.10;;;1.90;;
15132;SDS011;7667;51.232;17.110;2022-10-16T12:30:51;1.67;;;1.58;;
15132;SDS011;7667;51.232;17.110;2022-10-16T12:33:30;2.20;;;2.00;;
15132;SDS011;7667;51.232;17.110;2022-10-16T12:36:02;1.90;;;1.80;;
15132;SDS011;7667;51.232;17.110;2022-10-16T12:38:49;3.67;;;2.20;;
15132;SDS011;7667;51.232;17.110;2022-10-16T12:41:31;2.28;;;2.08;;
15132;SDS011;7667;51.232;17.110;2022-10-16T12:44:01;2.38;;;2.17;;
15132;SDS011;7667;51.232;17.110;2022-10-16T12:51:40;2.28;;;2.08;;
15132;SDS011;7667;51.232;17.110;2022-10-16T12:54:13;2.25;;;2.05;;
15132;SDS011;7667;51.232;17.110;2022-10-16T13:00:07;3.33;;;1.98;;
15132;SDS011;7667;51.232;17.110;2022-10-16T13:06:26;2.80;;;2.60;;
15132;SDS011;7667;51.232;17.110;2022-10-16T13:24:21;2.58;;;2.20;;
15132;SDS011;7667;51.232;17.110;2022-10-16T13:33:25;3.50;;;2.90;;
15132;SDS011;7667;51.232;17.110;2022-10-16T13:36:05;3.28;;;2.90;;
15132;SDS011;7667;51.232;17.110;2022-10-16T13:38:34;3.53;;;2.95;;
15132;SDS011;7667;51.232;17.110;2022-10-16T13:41:04;3.17;;;2.88;;
15132;SDS011;7667;51.232;17.110;2022-10-16T13:43:49;4.55;;;2.78;;
15132;SDS011;7667;51.232;17.110;2022-10-16T13:46:23;4.75;;;3.05;;
15132;SDS011;7667;51.232;17.110;2022-10-16T13:48:58;3.25;;;2.95;;
15132;SDS011;7667;51.232;17.110;2022-10-16T13:51:32;3.42;;;2.95;;
15132;SDS011;7667;51.232;17.110;2022-10-16T13:54:00;6.38;;;3.47;;
15132;SDS011;7667;51.232;17.110;2022-10-16T13:56:28;3.20;;;2.90;;
15132;SDS011;7667;51.232;17.110;2022-10-16T13:59:02;3.20;;;2.90;;
15132;SDS011;7667;51.232;17.110;2022-10-16T14:01:42;2.95;;;2.75;;
15132;SDS011;7667;51.232;17.110;2022-10-16T14:04:11;3.10;;;2.80;;
15132;SDS011;7667;51.232;17.110;2022-10-16T14:06:40;2.83;;;2.63;;
15132;SDS011;7667;51.232;17.110;2022-10-16T14:09:19;2.88;;;2.58;;
15132;SDS011;7667;51.232;17.110;2022-10-16T14:11:57;4.00;;;2.78;;
15132;SDS011;7667;51.232;17.110;2022-10-16T14:14:38;2.80;;;2.60;;
15132;SDS011;7667;51.232;17.110;2022-10-16T14:17:20;2.70;;;2.50;;
15132;SDS011;7667;51.232;17.110;2022-10-16T14:20:00;2.80;;;2.60;;
15132;SDS011;7667;51.232;17.110;2022-10-16T14:28:13;3.03;;;2.83;;
15132;SDS011;7667;51.232;17.110;2022-10-16T14:30:56;2.95;;;2.45;;
15132;SDS011;7667;51.232;17.110;2022-10-16T14:36:14;4.22;;;2.35;;
15132;SDS011;7667;51.232;17.110;2022-10-16T14:38:55;2.55;;;2.35;;
15132;SDS011;7667;51.232;17.110;2022-10-16T14:41:42;4.00;;;2.55;;
15132;SDS011;7667;51.232;17.110;2022-10-16T14:44:14;2.50;;;2.30;;
15132;SDS011;7667;51.232;17.110;2022-10-16T14:46:45;2.65;;;2.45;;
15132;SDS011;7667;51.232;17.110;2022-10-16T14:51:48;2.65;;;2.45;;
15132;SDS011;7667;51.232;17.110;2022-10-16T14:54:17;2.33;;;2.13;;
15132;SDS011;7667;51.232;17.110;2022-10-16T14:56:47;2.70;;;2.50;;
15132;SDS011;7667;51.232;17.110;2022-10-16T14:59:29;2.95;;;2.53;;
15132;SDS011;7667;51.232;17.110;2022-10-16T15:04:52;2.40;;;2.20;;
15132;SDS011;7667;51.232;17.110;2022-10-16T15:07:20;3.43;;;2.20;;
15132;SDS011;7667;51.232;17.110;2022-10-16T15:09:47;3.10;;;2.10;;
15132;SDS011;7667;51.232;17.110;2022-10-16T15:12:15;2.70;;;2.13;;
15132;SDS011;7667;51.232;17.110;2022-10-16T15:14:43;4.20;;;2.40;;
15132;SDS011;7667;51.232;17.110;2022-10-16T15:17:11;2.60;;;2.37;;
15132;SDS011;7667;51.232;17.110;2022-10-16T15:19:41;2.40;;;2.20;;
15132;SDS011;7667;51.232;17.110;2022-10-16T15:22:10;2.67;;;2.27;;
15132;SDS011;7667;51.232;17.110;2022-10-16T15:24:39;2.97;;;2.43;;
15132;SDS011;7667;51.232;17.110;2022-10-16T15:27:06;3.27;;;2.50;;
15132;SDS011;7667;51.232;17.110;2022-10-16T15:29:34;2.77;;;2.50;;
15132;SDS011;7667;51.232;17.110;2022-10-16T15:32:01;3.73;;;2.70;;
15132;SDS011;7667;51.232;17.110;2022-10-16T15:34:29;2.77;;;2.33;;
15132;SDS011;7667;51.232;17.110;2022-10-16T15:36:57;2.77;;;2.40;;
15132;SDS011;7667;51.232;17.110;2022-10-16T15:39:26;2.40;;;2.20;;
15132;SDS011;7667;51.232;17.110;2022-10-16T15:41:53;3.20;;;2.43;;
15132;SDS011;7667;51.232;17.110;2022-10-16T15:44:21;4.37;;;2.50;;
15132;SDS011;7667;51.232;17.110;2022-10-16T15:46:56;2.63;;;2.30;;
15132;SDS011;7667;51.232;17.110;2022-10-16T15:49:23;2.90;;;2.60;;
15132;SDS011;7667;51.232;17.110;2022-10-16T15:51:51;2.80;;;2.27;;
15132;SDS011;7667;51.232;17.110;2022-10-16T15:54:19;3.00;;;2.70;;
15132;SDS011;7667;51.232;17.110;2022-10-16T15:56:49;3.87;;;2.80;;
15132;SDS011;7667;51.232;17.110;2022-10-16T15:59:16;3.00;;;2.63;;
15132;SDS011;7667;51.232;17.110;2022-10-16T16:01:44;3.57;;;3.13;;
15132;SDS011;7667;51.232;17.110;2022-10-16T16:04:11;6.07;;;2.90;;
15132;SDS011;7667;51.232;17.110;2022-10-16T16:06:59;3.27;;;2.97;;
15132;SDS011;7667;51.232;17.110;2022-10-16T16:09:30;4.63;;;3.00;;
15132;SDS011;7667;51.232;17.110;2022-10-16T16:11:57;2.77;;;2.50;;
15132;SDS011;7667;51.232;17.110;2022-10-16T16:14:27;3.73;;;2.83;;
15132;SDS011;7667;51.232;17.110;2022-10-16T16:16:55;3.67;;;3.23;;
15132;SDS011;7667;51.232;17.110;2022-10-16T16:19:23;7.17;;;4.40;;
15132;SDS011;7667;51.232;17.110;2022-10-16T16:21:51;8.77;;;5.03;;
15132;SDS011;7667;51.232;17.110;2022-10-16T16:24:18;17.57;;;13.73;;
15132;SDS011;7667;51.232;17.110;2022-10-16T16:26:46;9.07;;;7.10;;
15132;SDS011;7667;51.232;17.110;2022-10-16T16:29:14;7.77;;;5.83;;
15132;SDS011;7667;51.232;17.110;2022-10-16T16:31:42;6.77;;;5.23;;
15132;SDS011;7667;51.232;17.110;2022-10-16T16:34:10;6.93;;;5.30;;
15132;SDS011;7667;51.232;17.110;2022-10-16T16:36:38;7.13;;;4.60;;
15132;SDS011;7667;51.232;17.110;2022-10-16T16:39:06;7.03;;;4.23;;
15132;SDS011;7667;51.232;17.110;2022-10-16T16:41:34;6.33;;;4.30;;
15132;SDS011;7667;51.232;17.110;2022-10-16T16:44:03;4.67;;;3.93;;
15132;SDS011;7667;51.232;17.110;2022-10-16T16:46:34;5.33;;;4.30;;
15132;SDS011;7667;51.232;17.110;2022-10-16T16:49:01;6.70;;;4.33;;
15132;SDS011;7667;51.232;17.110;2022-10-16T17:03:04;6.13;;;4.73;;
15132;SDS011;7667;51.232;17.110;2022-10-16T17:05:32;6.30;;;4.77;;
15132;SDS011;7667;51.232;17.110;2022-10-16T17:08:13;6.50;;;4.60;;
15132;SDS011;7667;51.232;17.110;2022-10-16T17:10:54;5.53;;;4.67;;
15132;SDS011;7667;51.232;17.110;2022-10-16T17:13:23;6.70;;;5.23;;
15132;SDS011;7667;51.232;17.110;2022-10-16T17:15:53;6.43;;;4.73;;
15132;SDS011;7667;51.232;17.110;2022-10-16T17:18:35;6.67;;;5.80;;
15132;SDS011;7667;51.232;17.110;2022-10-16T17:21:17;6.70;;;4.67;;
15132;SDS011;7667;51.232;17.110;2022-10-16T17:23:45;6.67;;;5.20;;
15132;SDS011;7667;51.232;17.110;2022-10-16T17:26:14;6.77;;;4.80;;
15132;SDS011;7667;51.232;17.110;2022-10-16T17:28:59;7.40;;;5.77;;
15132;SDS011;7667;51.232;17.110;2022-10-16T17:31:41;7.37;;;5.70;;
15132;SDS011;7667;51.232;17.110;2022-10-16T17:34:09;13.33;;;7.73;;
15132;SDS011;7667;51.232;17.110;2022-10-16T17:36:38;26.13;;;17.27;;
15132;SDS011;7667;51.232;17.110;2022-10-16T17:39:10;44.40;;;29.47;;
15132;SDS011;7667;51.232;17.110;2022-10-16T17:41:40;51.33;;;36.40;;
15132;SDS011;7667;51.232;17.110;2022-10-16T17:44:09;48.20;;;34.90;;
15132;SDS011;7667;51.232;17.110;2022-10-16T17:46:48;38.20;;;26.53;;
15132;SDS011;7667;51.232;17.110;2022-10-16T17:49:18;23.53;;;17.53;;